(°C)
26°
27°
27°
28°
29°
29°
30°
(°C)
29°
30°
30°
31°
32°
32°
33°
ZW
ZW
ZW
ZW
WZW
WZW
WZW
(km/u)
10-20
11-22
12-23
12-23
12-21
11-20
11-21
(mm)
0
0
0
0
0
0
0.2
(%)
8
15
21
21
22
22
37

Zonverhoging

/ 9.7°
sun-icon
UV 6
05:36
20:35
Wassende maan (37°)
08:36
23:17

METAR voor Wilmington Manor (KILG)

Tijd Voorwaarden Temperatuur/
Dauwpunt
Wind Zicht Weer Wolken Luchtdruk Wijzigen Ruw
VFR 25°C / 22.2°C 210º 3kt >10km - Clear 1013 - KILG 020951Z AUTO 21003KT 10SM CLR 25/22 A2994 RMK AO2 SLP139 T02500222
VFR 25°C / 22.2°C 220º 6kt >10km - Scattered Clouds 12000ft 1013 - KILG 020851Z AUTO 22006KT 10SM SCT120 25/22 A2992 RMK AO2 SLP132 T02500222 56009
VFR 24.4°C / 22.2°C 200º 8kt >10km - Broken Clouds 12000ft 1013 - KILG 020751Z AUTO 20008KT 10SM BKN120 24/22 A2993 RMK AO2 SLP133 T02440222
VFR 24.4°C / 22.2°C 180º 8kt >10km - Clear 1013 - KILG 020651Z AUTO 18008KT 10SM CLR 24/22 A2994 RMK AO2 SLP136 T02440222
VFR 25°C / 22.2°C 190º 6kt >10km - Clear 1014 - KILG 020551Z AUTO 19006KT 10SM CLR 25/22 A2995 RMK AO2 SLP141 T02500222 10289 20250 58006
VFR 25.6°C / 21.7°C 220º 8kt >10km - Broken Clouds 11000ft 1014 - KILG 020451Z AUTO 22008KT 10SM BKN110 26/22 A2997 RMK AO2 SLP146 T02560217 403390222
VFR 26.1°C / 21.7°C 240º 7kt >10km - Clear 1014 - KILG 020351Z AUTO 24007KT 10SM CLR 26/22 A2997 RMK AO2 SLP148 T02610217
VFR 26.7°C / 21.1°C 210º 8kt >10km - Clear 1014 - KILG 020251Z AUTO 21008KT 10SM CLR 27/21 A2997 RMK AO2 SLP147 T02670211 55003
VFR 27.2°C / 21.1°C 190º 9kt >10km - Clear 1014 - KILG 020151Z AUTO 19009KT 10SM CLR 27/21 A2997 RMK AO2 SLP146 T02720211
VFR 27.8°C / 21.1°C 200º 10kt >10km - Clear 1014 - KILG 020051Z AUTO 20010KT 10SM CLR 28/21 A2997 RMK AO2 SLP146 T02780211
VFR 26.1°C / 22.2°C 290º 4kt >10km 0.51mm precipitation Clear 1015 - KILG 012151Z 29004KT 10SM CLR 26/22 A2999 RMK AO2 RAB01E25 SLP153 P0002 T02610222
VFR 24.4°C / 20.6°C 260º 4kt >10km Light Rain 0.51mm precipitation Few Clouds 7500ft
Overcast 10000ft
- KILG 012116Z 26004KT 10SM -RA FEW075 OVC100 24/21 A3001 RMK AO2 RAB01 P0002 T02440206
VFR 25°C / 20°C 280º 8kt 9700m Light Rain 0.13mm precipitation Few Clouds 5000ft
Scattered Clouds 8000ft
Overcast 10000ft
- KILG 012105Z 28008KT 6SM -RA FEW050 SCT080 OVC100 25/20 A3001 RMK AO2 RAB01 P0000 T02500200
VFR 27.8°C / 18.9°C 290º 14kt Gust 23kt >10km in the Vicinity Thunderstorm Vertical Visibility of 0ft.
Few Clouds 8000ft
Overcast 10000ft
1016 - KILG 012051Z 29014G23KT 10SM VCTS FEW050 FEW080 OVC100 28/19 A3003 RMK AO2 SLP166 T02780189 55000
VFR 30°C / 21.7°C 250º 8kt >10km. Runway 01: Visual range is variable from 1676m up to more than 1829m. in the Vicinity Thunderstorm Vertical Visibility of 0ft. - KILG 012035Z 25008KT 10SM R01/5500VP6000FT VCTS OVC100 30/22 A3002 RMK AO2 LTG DSNT SW-N T03000217
VFR 31.1°C / 21.1°C 230º 11kt >10km - Few Clouds 12000ft 1016 - KILG 011951Z 23011KT 10SM FEW120 31/21 A3001 RMK AO2 LTG DSNT W-N SLP160 T03110211
VFR 33.3°C / 21.7°C 200º 16kt Gust 22kt >10km - Few Clouds 4600ft 1015 - KILG 011851Z 20016G22KT 10SM FEW046 33/22 A3001 RMK AO2 LTG DSNT NW SLP159 T03330217
VFR 32.2°C / 21.1°C 220º 11kt >10km - Clear 1016 - KILG 011751Z 22011KT 10SM CLR 32/21 A3003 RMK AO2 SLP167 T03220211 10339 20250 58017
VFR 31.7°C / 22.2°C 230º 10kt >10km - Scattered Clouds 9000ft 1017 - KILG 011651Z 23010KT 10SM SCT090 32/22 A3005 RMK AO2 SLP175 T03170222
VFR 31.1°C / 22.2°C 220º 7kt Gust 15kt >10km - Clear 1017 - KILG 011551Z 22007G15KT 10SM CLR 31/22 A3006 RMK AO2 SLP179 T03110222
VFR 30°C / 22.2°C 210º 8kt >10km - Clear 1018 - KILG 011451Z 21008KT 10SM CLR 30/22 A3008 RMK AO2 SLP184 T03000222 58007
VFR 28.3°C / 22.2°C 220º 9kt >10km - Clear 1018 - KILG 011351Z 22009KT 10SM CLR 28/22 A3009 RMK AO2 SLP189 T02830222
VFR 26.7°C / 21.7°C 210º 8kt >10km - Clear 1019 - KILG 011251Z 21008KT 10SM CLR 27/22 A3010 RMK AO2 SLP191 T02670217
VFR 25°C / 21.7°C 210º 7kt >10km - Clear 1019 - KILG 011151Z 21007KT 10SM CLR 25/22 A3010 RMK AO2 SLP190 T02500217 10250 20222 56004

VFR

25°C / 22.2°C

[Meer]
Wind 210º 3kt
Zicht >10km
Weer -
Wolken Clear
Luchtdruk 1013
Wijzigen -
Ruw KILG 020951Z AUTO 21003KT 10SM CLR 25/22 A2994 RMK AO2 SLP139 T02500222

VFR

25°C / 22.2°C

[Meer]
Wind 220º 6kt
Zicht >10km
Weer -
Wolken Scattered Clouds 12000ft
Luchtdruk 1013
Wijzigen -
Ruw KILG 020851Z AUTO 22006KT 10SM SCT120 25/22 A2992 RMK AO2 SLP132 T02500222 56009

VFR

24.4°C / 22.2°C

[Meer]
Wind 200º 8kt
Zicht >10km
Weer -
Wolken Broken Clouds 12000ft
Luchtdruk 1013
Wijzigen -
Ruw KILG 020751Z AUTO 20008KT 10SM BKN120 24/22 A2993 RMK AO2 SLP133 T02440222

VFR

24.4°C / 22.2°C

[Meer]
Wind 180º 8kt
Zicht >10km
Weer -
Wolken Clear
Luchtdruk 1013
Wijzigen -
Ruw KILG 020651Z AUTO 18008KT 10SM CLR 24/22 A2994 RMK AO2 SLP136 T02440222

VFR

25°C / 22.2°C

[Meer]
Wind 190º 6kt
Zicht >10km
Weer -
Wolken Clear
Luchtdruk 1014
Wijzigen -
Ruw KILG 020551Z AUTO 19006KT 10SM CLR 25/22 A2995 RMK AO2 SLP141 T02500222 10289 20250 58006

VFR

25.6°C / 21.7°C

[Meer]
Wind 220º 8kt
Zicht >10km
Weer -
Wolken Broken Clouds 11000ft
Luchtdruk 1014
Wijzigen -
Ruw KILG 020451Z AUTO 22008KT 10SM BKN110 26/22 A2997 RMK AO2 SLP146 T02560217 403390222

VFR

26.1°C / 21.7°C

[Meer]
Wind 240º 7kt
Zicht >10km
Weer -
Wolken Clear
Luchtdruk 1014
Wijzigen -
Ruw KILG 020351Z AUTO 24007KT 10SM CLR 26/22 A2997 RMK AO2 SLP148 T02610217

VFR

26.7°C / 21.1°C

[Meer]
Wind 210º 8kt
Zicht >10km
Weer -
Wolken Clear
Luchtdruk 1014
Wijzigen -
Ruw KILG 020251Z AUTO 21008KT 10SM CLR 27/21 A2997 RMK AO2 SLP147 T02670211 55003

VFR

27.2°C / 21.1°C

[Meer]
Wind 190º 9kt
Zicht >10km
Weer -
Wolken Clear
Luchtdruk 1014
Wijzigen -
Ruw KILG 020151Z AUTO 19009KT 10SM CLR 27/21 A2997 RMK AO2 SLP146 T02720211

VFR

27.8°C / 21.1°C

[Meer]
Wind 200º 10kt
Zicht >10km
Weer -
Wolken Clear
Luchtdruk 1014
Wijzigen -
Ruw KILG 020051Z AUTO 20010KT 10SM CLR 28/21 A2997 RMK AO2 SLP146 T02780211

VFR

26.1°C / 22.2°C

[Meer]
Wind 290º 4kt
Zicht >10km
Weer 0.51mm precipitation
Wolken Clear
Luchtdruk 1015
Wijzigen -
Ruw KILG 012151Z 29004KT 10SM CLR 26/22 A2999 RMK AO2 RAB01E25 SLP153 P0002 T02610222

VFR

24.4°C / 20.6°C

[Meer]
Wind 260º 4kt
Zicht >10km
Weer Light Rain 0.51mm precipitation
Wolken Few Clouds 7500ft
Overcast 10000ft
Luchtdruk
Wijzigen -
Ruw KILG 012116Z 26004KT 10SM -RA FEW075 OVC100 24/21 A3001 RMK AO2 RAB01 P0002 T02440206

VFR

25°C / 20°C

[Meer]
Wind 280º 8kt
Zicht 9700m
Weer Light Rain 0.13mm precipitation
Wolken Few Clouds 5000ft
Scattered Clouds 8000ft
Overcast 10000ft
Luchtdruk
Wijzigen -
Ruw KILG 012105Z 28008KT 6SM -RA FEW050 SCT080 OVC100 25/20 A3001 RMK AO2 RAB01 P0000 T02500200

VFR

27.8°C / 18.9°C

[Meer]
Wind 290º 14kt Gust 23kt
Zicht >10km
Weer in the Vicinity Thunderstorm
Wolken Vertical Visibility of 0ft.
Few Clouds 8000ft
Overcast 10000ft
Luchtdruk 1016
Wijzigen -
Ruw KILG 012051Z 29014G23KT 10SM VCTS FEW050 FEW080 OVC100 28/19 A3003 RMK AO2 SLP166 T02780189 55000

VFR

30°C / 21.7°C

[Meer]
Wind 250º 8kt
Zicht >10km. Runway 01: Visual range is variable from 1676m up to more than 1829m.
Weer in the Vicinity Thunderstorm
Wolken Vertical Visibility of 0ft.
Luchtdruk
Wijzigen -
Ruw KILG 012035Z 25008KT 10SM R01/5500VP6000FT VCTS OVC100 30/22 A3002 RMK AO2 LTG DSNT SW-N T03000217

VFR

31.1°C / 21.1°C

[Meer]
Wind 230º 11kt
Zicht >10km
Weer -
Wolken Few Clouds 12000ft
Luchtdruk 1016
Wijzigen -
Ruw KILG 011951Z 23011KT 10SM FEW120 31/21 A3001 RMK AO2 LTG DSNT W-N SLP160 T03110211

VFR

33.3°C / 21.7°C

[Meer]
Wind 200º 16kt Gust 22kt
Zicht >10km
Weer -
Wolken Few Clouds 4600ft
Luchtdruk 1015
Wijzigen -
Ruw KILG 011851Z 20016G22KT 10SM FEW046 33/22 A3001 RMK AO2 LTG DSNT NW SLP159 T03330217

VFR

32.2°C / 21.1°C

[Meer]
Wind 220º 11kt
Zicht >10km
Weer -
Wolken Clear
Luchtdruk 1016
Wijzigen -
Ruw KILG 011751Z 22011KT 10SM CLR 32/21 A3003 RMK AO2 SLP167 T03220211 10339 20250 58017

VFR

31.7°C / 22.2°C

[Meer]
Wind 230º 10kt
Zicht >10km
Weer -
Wolken Scattered Clouds 9000ft
Luchtdruk 1017
Wijzigen -
Ruw KILG 011651Z 23010KT 10SM SCT090 32/22 A3005 RMK AO2 SLP175 T03170222

VFR

31.1°C / 22.2°C

[Meer]
Wind 220º 7kt Gust 15kt
Zicht >10km
Weer -
Wolken Clear
Luchtdruk 1017
Wijzigen -
Ruw KILG 011551Z 22007G15KT 10SM CLR 31/22 A3006 RMK AO2 SLP179 T03110222

VFR

30°C / 22.2°C

[Meer]
Wind 210º 8kt
Zicht >10km
Weer -
Wolken Clear
Luchtdruk 1018
Wijzigen -
Ruw KILG 011451Z 21008KT 10SM CLR 30/22 A3008 RMK AO2 SLP184 T03000222 58007

VFR

28.3°C / 22.2°C

[Meer]
Wind 220º 9kt
Zicht >10km
Weer -
Wolken Clear
Luchtdruk 1018
Wijzigen -
Ruw KILG 011351Z 22009KT 10SM CLR 28/22 A3009 RMK AO2 SLP189 T02830222

VFR

26.7°C / 21.7°C

[Meer]
Wind 210º 8kt
Zicht >10km
Weer -
Wolken Clear
Luchtdruk 1019
Wijzigen -
Ruw KILG 011251Z 21008KT 10SM CLR 27/22 A3010 RMK AO2 SLP191 T02670217

VFR

25°C / 21.7°C

[Meer]
Wind 210º 7kt
Zicht >10km
Weer -
Wolken Clear
Luchtdruk 1019
Wijzigen -
Ruw KILG 011151Z 21007KT 10SM CLR 25/22 A3010 RMK AO2 SLP190 T02500217 10250 20222 56004

TAF voor Wilmington Manor (KILG)

From till


From till Wind 210º 6kt. Visibility 10km or more. Scattered Clouds 8000ft. Broken Clouds 20000ft.
From till Wind 230º 9kt. Visibility 10km or more. Broken Clouds 6000ft.
With 30% probability, from till Visibility 6400m. Thunderstorm Rain . Broken Clouds 2500ft. Overcast 6000ft.
From till Wind variable 3kt. Visibility 10km or more. Broken Clouds 8000ft.

Ruw: KILG 020522Z 0206/0306 21006KT P6SM SCT080 BKN200 FM021300 23009KT P6SM BKN060 PROB30 0221/0301 4SM TSRA BKN025CB OVC060 FM030100 VRB03KT P6SM BKN080

Radar en neerslag nowcast voor Wilmington Manor

Motregen
Licht
Matig
Zwaar
Zeer zwaar
Hagel

De locatiemarkering is op Wilmington Manor geplaatst . Deze animation toont de neerslag radar van het afgelopen uur, maar ook de 1h verwachting. Motregen of lichte sneeuwval kan onzichtbaar zijn voor de radar. De neerslagintensiteit wordt met kleuren weergegeven, van lichtblauw tot oranje.

Huidige satellietbeelden voor Wilmington Manor, Verenigde Staten

De locatiemarkering is op Wilmington Manor geplaatst. [Meer]

Het realtime satellietbeeld combineert zichtbaar licht overdag met infraroodstraling 's nachts. 's Nachts is het beeld niet donker, omdat infraroodstraling temperatuurverschillen kan waarnemen. Helaas zijn lage wolken en mist moeilijk te onderscheiden van grondtemperaturen en kunnen dus 's nachts bijna onzichtbaar zijn. Meteosat-satellietbeelden voor Europa worden elke 5 minuten in real time bijgewerkt. De beelden van GOES-16/GOES-17 (Noord- en Zuid-Amerika) en Himawari (Azië) worden om de 10 minuten bijgewerkt.

Terug naar boven